KRRT

Warroad International Memorial Airport

Warroad, Minnesota, USA
METAR KRRT 241435Z AUTO 09014G18KT 10SM SCT020 19/16 A3000 RMK AO2
Observed Flight Rules
Jun-24 @ 14:35 UTC (24 minutes ago) Visual Flight Rules
Wind Visibility Clouds
90° at 14 knots
 Gusting to 18 knots
10 miles
  • Scattered at 2,000' AGL
Temperatures Readings
Current 19°C / 66°F
Dewpoint 16°C / 61°F
Humidity 83%
Altimeter 30" Hg
Pressure 1016 hPa
Elevation 327
METAR KRRT 241435Z AUTO 09014G18KT 10SM SCT020 19/16 A3000 RMK AO2
Observed Flight Rules
Jun-24 @ 14:35 UTC
(24 minutes ago)
VFR
Wind Visibility
90° at 14 knots
 Gusting to 18 knots
10 miles
Clouds
  • Scattered at 2,000' AGL
Temperature Dewpoint
19°C / 66°F 16°C / 61°F
Humidity Altimeter Pressure
83% 30" Hg 1016 hPa